sensor_id;sensor_type;location;lat;lon;timestamp;P1;durP1;ratioP1;P2;durP2;ratioP2
52458;SDS011;38372;52.902;6.024;2022-11-09T00:02:22;7.63;;;2.00;;
52458;SDS011;38372;52.902;6.024;2022-11-09T00:04:48;6.47;;;1.95;;
52458;SDS011;38372;52.902;6.024;2022-11-09T00:07:14;5.35;;;1.90;;
52458;SDS011;38372;52.902;6.024;2022-11-09T00:09:40;3.72;;;2.15;;
52458;SDS011;38372;52.902;6.024;2022-11-09T00:12:06;5.10;;;2.45;;
52458;SDS011;38372;52.902;6.024;2022-11-09T00:14:33;8.13;;;3.40;;
52458;SDS011;38372;52.902;6.024;2022-11-09T00:17:00;8.48;;;2.67;;
52458;SDS011;38372;52.902;6.024;2022-11-09T00:19:26;8.32;;;2.90;;
52458;SDS011;38372;52.902;6.024;2022-11-09T00:21:52;6.03;;;3.03;;
52458;SDS011;38372;52.902;6.024;2022-11-09T00:24:19;6.85;;;3.35;;
52458;SDS011;38372;52.902;6.024;2022-11-09T00:26:45;7.45;;;3.25;;
52458;SDS011;38372;52.902;6.024;2022-11-09T00:29:11;8.02;;;3.22;;
52458;SDS011;38372;52.902;6.024;2022-11-09T00:31:37;6.55;;;3.17;;
52458;SDS011;38372;52.902;6.024;2022-11-09T00:34:04;6.93;;;3.40;;
52458;SDS011;38372;52.902;6.024;2022-11-09T00:36:30;12.23;;;4.22;;
52458;SDS011;38372;52.902;6.024;2022-11-09T00:38:57;6.10;;;3.53;;
52458;SDS011;38372;52.902;6.024;2022-11-09T00:41:24;6.50;;;2.80;;
52458;SDS011;38372;52.902;6.024;2022-11-09T00:43:54;9.23;;;3.17;;
52458;SDS011;38372;52.902;6.024;2022-11-09T00:46:20;7.13;;;2.72;;
52458;SDS011;38372;52.902;6.024;2022-11-09T00:48:47;8.70;;;3.53;;
52458;SDS011;38372;52.902;6.024;2022-11-09T00:51:13;7.57;;;2.60;;
52458;SDS011;38372;52.902;6.024;2022-11-09T00:53:39;7.65;;;2.42;;
52458;SDS011;38372;52.902;6.024;2022-11-09T00:56:08;6.40;;;2.63;;
52458;SDS011;38372;52.902;6.024;2022-11-09T00:58:41;6.40;;;2.60;;
52458;SDS011;38372;52.902;6.024;2022-11-09T01:01:10;11.15;;;2.88;;
52458;SDS011;38372;52.902;6.024;2022-11-09T01:03:39;7.85;;;3.08;;
52458;SDS011;38372;52.902;6.024;2022-11-09T01:06:05;6.68;;;2.15;;
52458;SDS011;38372;52.902;6.024;2022-11-09T01:08:33;6.72;;;2.60;;
52458;SDS011;38372;52.902;6.024;2022-11-09T01:11:06;8.20;;;2.90;;
52458;SDS011;38372;52.902;6.024;2022-11-09T01:13:34;5.35;;;2.00;;
52458;SDS011;38372;52.902;6.024;2022-11-09T01:16:04;8.38;;;2.50;;
52458;SDS011;38372;52.902;6.024;2022-11-09T01:18:36;13.88;;;2.95;;
52458;SDS011;38372;52.902;6.024;2022-11-09T01:21:04;5.80;;;2.70;;
52458;SDS011;38372;52.902;6.024;2022-11-09T01:23:31;8.88;;;2.85;;
52458;SDS011;38372;52.902;6.024;2022-11-09T01:25:59;7.72;;;2.70;;
52458;SDS011;38372;52.902;6.024;2022-11-09T01:28:27;9.13;;;3.53;;
52458;SDS011;38372;52.902;6.024;2022-11-09T01:30:53;8.15;;;3.03;;
52458;SDS011;38372;52.902;6.024;2022-11-09T01:33:20;10.40;;;3.08;;
52458;SDS011;38372;52.902;6.024;2022-11-09T01:35:46;9.05;;;3.05;;
52458;SDS011;38372;52.902;6.024;2022-11-09T01:38:12;6.78;;;3.03;;
52458;SDS011;38372;52.902;6.024;2022-11-09T01:40:38;6.05;;;2.60;;
52458;SDS011;38372;52.902;6.024;2022-11-09T01:43:16;10.70;;;3.50;;
52458;SDS011;38372;52.902;6.024;2022-11-09T01:45:46;10.38;;;2.95;;
52458;SDS011;38372;52.902;6.024;2022-11-09T01:48:17;6.35;;;2.20;;
52458;SDS011;38372;52.902;6.024;2022-11-09T01:50:55;7.07;;;2.70;;
52458;SDS011;38372;52.902;6.024;2022-11-09T01:53:29;8.60;;;2.20;;
52458;SDS011;38372;52.902;6.024;2022-11-09T01:56:00;9.40;;;2.95;;
52458;SDS011;38372;52.902;6.024;2022-11-09T01:58:30;7.43;;;2.25;;
52458;SDS011;38372;52.902;6.024;2022-11-09T02:01:02;7.38;;;2.45;;
52458;SDS011;38372;52.902;6.024;2022-11-09T02:03:31;8.40;;;2.60;;
52458;SDS011;38372;52.902;6.024;2022-11-09T02:06:04;8.95;;;2.63;;
52458;SDS011;38372;52.902;6.024;2022-11-09T02:08:33;9.85;;;2.92;;
52458;SDS011;38372;52.902;6.024;2022-11-09T02:13:40;7.28;;;2.10;;
52458;SDS011;38372;52.902;6.024;2022-11-09T02:16:11;11.68;;;2.70;;
52458;SDS011;38372;52.902;6.024;2022-11-09T02:18:47;9.55;;;2.58;;
52458;SDS011;38372;52.902;6.024;2022-11-09T02:21:17;6.63;;;2.20;;
52458;SDS011;38372;52.902;6.024;2022-11-09T02:23:44;6.90;;;2.95;;
52458;SDS011;38372;52.902;6.024;2022-11-09T02:26:16;7.97;;;2.22;;
52458;SDS011;38372;52.902;6.024;2022-11-09T02:28:46;6.38;;;2.30;;
52458;SDS011;38372;52.902;6.024;2022-11-09T02:31:17;7.65;;;1.90;;
52458;SDS011;38372;52.902;6.024;2022-11-09T02:34:04;9.68;;;2.30;;
52458;SDS011;38372;52.902;6.024;2022-11-09T02:36:33;8.32;;;2.70;;
52458;SDS011;38372;52.902;6.024;2022-11-09T02:38:59;6.60;;;2.33;;
52458;SDS011;38372;52.902;6.024;2022-11-09T02:41:27;8.40;;;2.20;;
52458;SDS011;38372;52.902;6.024;2022-11-09T02:43:56;9.27;;;2.75;;
52458;SDS011;38372;52.902;6.024;2022-11-09T02:46:29;7.25;;;2.10;;
52458;SDS011;38372;52.902;6.024;2022-11-09T02:48:58;11.00;;;2.60;;
52458;SDS011;38372;52.902;6.024;2022-11-09T02:51:24;8.35;;;3.10;;
52458;SDS011;38372;52.902;6.024;2022-11-09T02:53:51;9.45;;;2.58;;
52458;SDS011;38372;52.902;6.024;2022-11-09T02:56:17;9.35;;;2.25;;
52458;SDS011;38372;52.902;6.024;2022-11-09T02:58:43;8.80;;;1.92;;
52458;SDS011;38372;52.902;6.024;2022-11-09T03:01:09;8.50;;;3.08;;
52458;SDS011;38372;52.902;6.024;2022-11-09T03:03:36;6.00;;;1.98;;
52458;SDS011;38372;52.902;6.024;2022-11-09T03:06:02;9.27;;;2.05;;
52458;SDS011;38372;52.902;6.024;2022-11-09T03:08:28;8.60;;;2.22;;
52458;SDS011;38372;52.902;6.024;2022-11-09T03:10:54;9.27;;;2.20;;
52458;SDS011;38372;52.902;6.024;2022-11-09T03:13:20;8.77;;;2.00;;
52458;SDS011;38372;52.902;6.024;2022-11-09T03:15:46;9.98;;;2.20;;
52458;SDS011;38372;52.902;6.024;2022-11-09T03:18:13;12.95;;;2.50;;
52458;SDS011;38372;52.902;6.024;2022-11-09T03:20:39;10.60;;;2.20;;
52458;SDS011;38372;52.902;6.024;2022-11-09T03:23:06;7.63;;;2.22;;
52458;SDS011;38372;52.902;6.024;2022-11-09T03:25:32;7.28;;;2.10;;
52458;SDS011;38372;52.902;6.024;2022-11-09T03:27:59;11.38;;;2.88;;
52458;SDS011;38372;52.902;6.024;2022-11-09T03:30:27;9.63;;;1.77;;
52458;SDS011;38372;52.902;6.024;2022-11-09T03:32:59;10.02;;;2.15;;
52458;SDS011;38372;52.902;6.024;2022-11-09T03:35:37;8.20;;;1.95;;
52458;SDS011;38372;52.902;6.024;2022-11-09T03:38:03;12.00;;;3.25;;
52458;SDS011;38372;52.902;6.024;2022-11-09T03:40:30;12.23;;;2.58;;
52458;SDS011;38372;52.902;6.024;2022-11-09T03:42:57;6.90;;;1.80;;
52458;SDS011;38372;52.902;6.024;2022-11-09T03:45:23;7.53;;;1.92;;
52458;SDS011;38372;52.902;6.024;2022-11-09T03:47:52;8.45;;;1.80;;
52458;SDS011;38372;52.902;6.024;2022-11-09T03:50:27;10.35;;;2.10;;
52458;SDS011;38372;52.902;6.024;2022-11-09T03:52:55;10.55;;;2.05;;
52458;SDS011;38372;52.902;6.024;2022-11-09T03:55:22;7.97;;;1.85;;
52458;SDS011;38372;52.902;6.024;2022-11-09T03:57:49;8.70;;;2.30;;
52458;SDS011;38372;52.902;6.024;2022-11-09T04:00:17;7.35;;;1.92;;
52458;SDS011;38372;52.902;6.024;2022-11-09T04:02:44;10.77;;;1.83;;
52458;SDS011;38372;52.902;6.024;2022-11-09T04:05:11;9.52;;;2.30;;
52458;SDS011;38372;52.902;6.024;2022-11-09T04:07:39;10.00;;;2.25;;
52458;SDS011;38372;52.902;6.024;2022-11-09T04:10:11;7.07;;;2.03;;
52458;SDS011;38372;52.902;6.024;2022-11-09T04:12:38;9.65;;;1.70;;
52458;SDS011;38372;52.902;6.024;2022-11-09T04:15:04;11.07;;;2.20;;
52458;SDS011;38372;52.902;6.024;2022-11-09T04:17:31;12.90;;;2.50;;
52458;SDS011;38372;52.902;6.024;2022-11-09T04:19:58;7.38;;;2.70;;
52458;SDS011;38372;52.902;6.024;2022-11-09T04:22:25;8.35;;;2.17;;
52458;SDS011;38372;52.902;6.024;2022-11-09T04:24:51;7.25;;;1.88;;
52458;SDS011;38372;52.902;6.024;2022-11-09T04:27:17;9.75;;;2.70;;
52458;SDS011;38372;52.902;6.024;2022-11-09T04:29:44;9.93;;;2.03;;
52458;SDS011;38372;52.902;6.024;2022-11-09T04:32:13;13.07;;;1.75;;
52458;SDS011;38372;52.902;6.024;2022-11-09T04:34:39;11.60;;;2.15;;
52458;SDS011;38372;52.902;6.024;2022-11-09T04:37:07;8.25;;;1.95;;
52458;SDS011;38372;52.902;6.024;2022-11-09T04:39:34;15.68;;;3.83;;
52458;SDS011;38372;52.902;6.024;2022-11-09T04:42:01;9.13;;;1.83;;
52458;SDS011;38372;52.902;6.024;2022-11-09T04:44:27;8.50;;;2.15;;
52458;SDS011;38372;52.902;6.024;2022-11-09T04:46:56;8.90;;;2.10;;
52458;SDS011;38372;52.902;6.024;2022-11-09T04:49:23;8.38;;;2.20;;
52458;SDS011;38372;52.902;6.024;2022-11-09T04:51:49;9.43;;;1.83;;
52458;SDS011;38372;52.902;6.024;2022-11-09T04:54:16;9.82;;;2.25;;
52458;SDS011;38372;52.902;6.024;2022-11-09T04:56:42;12.20;;;2.40;;
52458;SDS011;38372;52.902;6.024;2022-11-09T04:59:08;10.70;;;2.47;;
52458;SDS011;38372;52.902;6.024;2022-11-09T05:01:38;6.38;;;2.20;;
52458;SDS011;38372;52.902;6.024;2022-11-09T05:04:05;14.93;;;2.50;;
52458;SDS011;38372;52.902;6.024;2022-11-09T05:06:31;8.65;;;2.10;;
52458;SDS011;38372;52.902;6.024;2022-11-09T05:09:03;12.65;;;2.13;;
52458;SDS011;38372;52.902;6.024;2022-11-09T05:11:31;11.20;;;2.67;;
52458;SDS011;38372;52.902;6.024;2022-11-09T05:13:59;6.90;;;2.47;;
52458;SDS011;38372;52.902;6.024;2022-11-09T05:16:27;10.82;;;2.17;;
52458;SDS011;38372;52.902;6.024;2022-11-09T05:18:57;14.32;;;2.70;;
52458;SDS011;38372;52.902;6.024;2022-11-09T05:21:23;5.53;;;2.50;;
52458;SDS011;38372;52.902;6.024;2022-11-09T05:23:49;9.57;;;2.10;;
52458;SDS011;38372;52.902;6.024;2022-11-09T05:26:25;7.03;;;1.92;;
52458;SDS011;38372;52.902;6.024;2022-11-09T05:29:04;13.82;;;2.33;;
52458;SDS011;38372;52.902;6.024;2022-11-09T05:31:35;10.25;;;2.17;;
52458;SDS011;38372;52.902;6.024;2022-11-09T05:34:02;6.43;;;2.28;;
52458;SDS011;38372;52.902;6.024;2022-11-09T05:36:32;6.93;;;2.10;;
52458;SDS011;38372;52.902;6.024;2022-11-09T05:38:59;7.53;;;2.25;;
52458;SDS011;38372;52.902;6.024;2022-11-09T05:41:26;9.45;;;2.80;;
52458;SDS011;38372;52.902;6.024;2022-11-09T05:43:53;10.38;;;2.88;;
52458;SDS011;38372;52.902;6.024;2022-11-09T05:46:20;11.40;;;2.22;;
52458;SDS011;38372;52.902;6.024;2022-11-09T05:48:46;7.10;;;1.77;;
52458;SDS011;38372;52.902;6.024;2022-11-09T05:51:13;12.57;;;2.42;;
52458;SDS011;38372;52.902;6.024;2022-11-09T05:53:41;8.05;;;2.30;;
52458;SDS011;38372;52.902;6.024;2022-11-09T05:56:09;6.13;;;2.45;;
52458;SDS011;38372;52.902;6.024;2022-11-09T05:58:37;5.60;;;2.00;;
52458;SDS011;38372;52.902;6.024;2022-11-09T06:01:04;11.45;;;2.35;;
52458;SDS011;38372;52.902;6.024;2022-11-09T06:03:31;8.02;;;2.20;;
52458;SDS011;38372;52.902;6.024;2022-11-09T06:05:59;8.05;;;2.17;;
52458;SDS011;38372;52.902;6.024;2022-11-09T06:08:26;10.15;;;1.90;;
52458;SDS011;38372;52.902;6.024;2022-11-09T06:10:57;9.95;;;2.85;;
52458;SDS011;38372;52.902;6.024;2022-11-09T06:13:28;7.78;;;2.13;;
52458;SDS011;38372;52.902;6.024;2022-11-09T06:15:55;8.80;;;2.10;;
52458;SDS011;38372;52.902;6.024;2022-11-09T06:18:23;9.02;;;2.00;;
52458;SDS011;38372;52.902;6.024;2022-11-09T06:20:54;13.02;;;2.85;;
52458;SDS011;38372;52.902;6.024;2022-11-09T06:23:25;7.68;;;2.25;;
52458;SDS011;38372;52.902;6.024;2022-11-09T06:25:52;13.05;;;2.53;;
52458;SDS011;38372;52.902;6.024;2022-11-09T06:28:21;8.52;;;2.78;;
52458;SDS011;38372;52.902;6.024;2022-11-09T06:30:47;6.68;;;2.05;;
52458;SDS011;38372;52.902;6.024;2022-11-09T06:33:14;7.28;;;1.98;;
52458;SDS011;38372;52.902;6.024;2022-11-09T06:35:43;9.82;;;2.85;;
52458;SDS011;38372;52.902;6.024;2022-11-09T06:38:10;10.55;;;1.92;;
52458;SDS011;38372;52.902;6.024;2022-11-09T06:40:36;10.50;;;2.42;;
52458;SDS011;38372;52.902;6.024;2022-11-09T06:43:03;7.30;;;2.17;;
52458;SDS011;38372;52.902;6.024;2022-11-09T06:45:30;10.35;;;2.72;;
52458;SDS011;38372;52.902;6.024;2022-11-09T06:47:57;8.40;;;2.08;;
52458;SDS011;38372;52.902;6.024;2022-11-09T06:50:26;7.68;;;1.70;;
52458;SDS011;38372;52.902;6.024;2022-11-09T06:52:56;9.45;;;2.15;;
52458;SDS011;38372;52.902;6.024;2022-11-09T06:55:24;6.95;;;1.77;;
52458;SDS011;38372;52.902;6.024;2022-11-09T06:57:52;9.88;;;2.08;;
52458;SDS011;38372;52.902;6.024;2022-11-09T07:00:19;9.98;;;2.05;;
52458;SDS011;38372;52.902;6.024;2022-11-09T07:02:48;7.75;;;2.10;;
52458;SDS011;38372;52.902;6.024;2022-11-09T07:05:15;11.23;;;1.83;;
52458;SDS011;38372;52.902;6.024;2022-11-09T07:07:41;7.65;;;2.28;;
52458;SDS011;38372;52.902;6.024;2022-11-09T07:10:08;9.15;;;2.47;;
52458;SDS011;38372;52.902;6.024;2022-11-09T07:12:34;7.75;;;2.10;;
52458;SDS011;38372;52.902;6.024;2022-11-09T07:15:02;8.98;;;2.00;;
52458;SDS011;38372;52.902;6.024;2022-11-09T07:17:30;11.18;;;2.47;;
52458;SDS011;38372;52.902;6.024;2022-11-09T07:19:57;12.18;;;2.03;;
52458;SDS011;38372;52.902;6.024;2022-11-09T07:22:27;9.85;;;1.83;;
52458;SDS011;38372;52.902;6.024;2022-11-09T07:24:54;7.90;;;1.57;;
52458;SDS011;38372;52.902;6.024;2022-11-09T07:27:21;10.52;;;2.15;;
52458;SDS011;38372;52.902;6.024;2022-11-09T07:29:48;7.78;;;1.77;;
52458;SDS011;38372;52.902;6.024;2022-11-09T07:32:15;9.70;;;2.13;;
52458;SDS011;38372;52.902;6.024;2022-11-09T07:34:42;7.20;;;2.08;;
52458;SDS011;38372;52.902;6.024;2022-11-09T07:37:10;14.68;;;2.72;;
52458;SDS011;38372;52.902;6.024;2022-11-09T07:39:37;5.75;;;1.58;;
52458;SDS011;38372;52.902;6.024;2022-11-09T07:42:04;13.55;;;2.53;;
52458;SDS011;38372;52.902;6.024;2022-11-09T07:44:30;11.07;;;1.65;;
52458;SDS011;38372;52.902;6.024;2022-11-09T07:46:57;9.35;;;2.20;;
52458;SDS011;38372;52.902;6.024;2022-11-09T07:49:24;8.10;;;1.70;;
52458;SDS011;38372;52.902;6.024;2022-11-09T07:51:50;8.88;;;1.77;;
52458;SDS011;38372;52.902;6.024;2022-11-09T07:54:17;7.95;;;1.80;;
52458;SDS011;38372;52.902;6.024;2022-11-09T07:56:43;10.60;;;2.63;;
52458;SDS011;38372;52.902;6.024;2022-11-09T07:59:10;9.50;;;2.00;;
52458;SDS011;38372;52.902;6.024;2022-11-09T08:01:37;9.05;;;2.72;;
52458;SDS011;38372;52.902;6.024;2022-11-09T08:04:04;14.05;;;2.05;;
52458;SDS011;38372;52.902;6.024;2022-11-09T08:06:31;5.63;;;1.55;;
52458;SDS011;38372;52.902;6.024;2022-11-09T08:08:58;9.55;;;2.47;;
52458;SDS011;38372;52.902;6.024;2022-11-09T08:11:25;8.68;;;2.08;;
52458;SDS011;38372;52.902;6.024;2022-11-09T08:13:51;13.13;;;2.72;;
52458;SDS011;38372;52.902;6.024;2022-11-09T08:16:18;8.95;;;1.80;;
52458;SDS011;38372;52.902;6.024;2022-11-09T08:18:45;6.53;;;2.15;;
52458;SDS011;38372;52.902;6.024;2022-11-09T08:21:13;7.80;;;2.03;;
52458;SDS011;38372;52.902;6.024;2022-11-09T08:23:40;9.43;;;2.38;;
52458;SDS011;38372;52.902;6.024;2022-11-09T08:26:08;7.93;;;2.47;;
52458;SDS011;38372;52.902;6.024;2022-11-09T08:28:36;10.82;;;2.70;;
52458;SDS011;38372;52.902;6.024;2022-11-09T08:31:05;10.55;;;2.42;;
52458;SDS011;38372;52.902;6.024;2022-11-09T08:33:34;9.20;;;2.05;;
52458;SDS011;38372;52.902;6.024;2022-11-09T08:36:13;9.25;;;1.90;;
52458;SDS011;38372;52.902;6.024;2022-11-09T08:38:41;8.43;;;2.20;;
52458;SDS011;38372;52.902;6.024;2022-11-09T08:41:09;8.98;;;1.92;;
52458;SDS011;38372;52.902;6.024;2022-11-09T08:43:37;12.63;;;3.10;;
52458;SDS011;38372;52.902;6.024;2022-11-09T08:46:04;7.93;;;2.22;;
52458;SDS011;38372;52.902;6.024;2022-11-09T08:48:30;10.85;;;2.80;;
52458;SDS011;38372;52.902;6.024;2022-11-09T08:50:57;10.05;;;2.35;;
52458;SDS011;38372;52.902;6.024;2022-11-09T08:53:27;8.73;;;2.70;;
52458;SDS011;38372;52.902;6.024;2022-11-09T08:56:10;13.68;;;2.50;;
52458;SDS011;38372;52.902;6.024;2022-11-09T08:58:43;7.30;;;2.25;;
52458;SDS011;38372;52.902;6.024;2022-11-09T09:01:14;10.85;;;2.75;;
52458;SDS011;38372;52.902;6.024;2022-11-09T09:03:41;7.22;;;1.65;;
52458;SDS011;38372;52.902;6.024;2022-11-09T09:06:08;9.13;;;2.13;;
52458;SDS011;38372;52.902;6.024;2022-11-09T09:08:35;10.95;;;3.45;;
52458;SDS011;38372;52.902;6.024;2022-11-09T09:11:02;10.48;;;2.53;;
52458;SDS011;38372;52.902;6.024;2022-11-09T09:13:29;7.40;;;2.40;;
52458;SDS011;38372;52.902;6.024;2022-11-09T09:15:57;9.68;;;2.75;;
52458;SDS011;38372;52.902;6.024;2022-11-09T09:18:32;10.70;;;2.97;;
52458;SDS011;38372;52.902;6.024;2022-11-09T09:21:04;9.97;;;3.13;;
52458;SDS011;38372;52.902;6.024;2022-11-09T09:25:59;10.52;;;3.78;;
52458;SDS011;38372;52.902;6.024;2022-11-09T09:28:27;12.65;;;3.95;;
52458;SDS011;38372;52.902;6.024;2022-11-09T09:30:53;11.18;;;4.05;;
52458;SDS011;38372;52.902;6.024;2022-11-09T09:33:24;10.40;;;3.30;;
52458;SDS011;38372;52.902;6.024;2022-11-09T09:35:53;11.70;;;3.28;;
52458;SDS011;38372;52.902;6.024;2022-11-09T09:38:22;11.85;;;3.30;;
52458;SDS011;38372;52.902;6.024;2022-11-09T09:40:53;11.57;;;2.90;;
52458;SDS011;38372;52.902;6.024;2022-11-09T09:46:17;8.68;;;3.10;;
52458;SDS011;38372;52.902;6.024;2022-11-09T09:48:54;9.52;;;2.97;;
52458;SDS011;38372;52.902;6.024;2022-11-09T09:51:32;10.75;;;3.30;;
52458;SDS011;38372;52.902;6.024;2022-11-09T09:56:41;11.30;;;3.03;;
52458;SDS011;38372;52.902;6.024;2022-11-09T10:01:37;11.45;;;2.90;;
52458;SDS011;38372;52.902;6.024;2022-11-09T10:04:20;7.35;;;3.03;;
52458;SDS011;38372;52.902;6.024;2022-11-09T10:07:06;8.52;;;2.72;;
52458;SDS011;38372;52.902;6.024;2022-11-09T10:09:54;8.13;;;2.72;;
52458;SDS011;38372;52.902;6.024;2022-11-09T10:15:43;10.95;;;3.33;;
52458;SDS011;38372;52.902;6.024;2022-11-09T10:18:29;13.88;;;4.40;;
52458;SDS011;38372;52.902;6.024;2022-11-09T10:21:37;13.50;;;3.08;;
52458;SDS011;38372;52.902;6.024;2022-11-09T10:24:34;13.93;;;4.70;;
52458;SDS011;38372;52.902;6.024;2022-11-09T10:27:10;10.45;;;2.95;;
52458;SDS011;38372;52.902;6.024;2022-11-09T10:29:58;11.30;;;3.20;;
52458;SDS011;38372;52.902;6.024;2022-11-09T10:32:28;11.57;;;2.63;;
52458;SDS011;38372;52.902;6.024;2022-11-09T10:38:32;8.65;;;2.75;;
52458;SDS011;38372;52.902;6.024;2022-11-09T10:41:04;13.88;;;3.72;;
52458;SDS011;38372;52.902;6.024;2022-11-09T10:43:47;10.80;;;2.83;;
52458;SDS011;38372;52.902;6.024;2022-11-09T10:46:14;10.52;;;2.97;;
52458;SDS011;38372;52.902;6.024;2022-11-09T10:48:40;14.07;;;3.58;;
52458;SDS011;38372;52.902;6.024;2022-11-09T10:51:28;9.25;;;2.85;;
52458;SDS011;38372;52.902;6.024;2022-11-09T10:54:31;8.82;;;2.90;;
52458;SDS011;38372;52.902;6.024;2022-11-09T10:57:11;13.15;;;2.70;;
52458;SDS011;38372;52.902;6.024;2022-11-09T10:59:48;11.20;;;2.83;;
52458;SDS011;38372;52.902;6.024;2022-11-09T11:07:33;9.15;;;3.40;;
52458;SDS011;38372;52.902;6.024;2022-11-09T11:13:18;7.75;;;2.75;;
52458;SDS011;38372;52.902;6.024;2022-11-09T11:15:35;8.38;;;2.78;;
52458;SDS011;38372;52.902;6.024;2022-11-09T11:18:20;7.28;;;3.00;;
52458;SDS011;38372;52.902;6.024;2022-11-09T11:21:11;8.93;;;3.15;;
52458;SDS011;38372;52.902;6.024;2022-11-09T11:23:43;11.60;;;3.42;;
52458;SDS011;38372;52.902;6.024;2022-11-09T11:29:00;16.40;;;3.63;;
52458;SDS011;38372;52.902;6.024;2022-11-09T11:31:48;11.30;;;3.20;;
52458;SDS011;38372;52.902;6.024;2022-11-09T11:34:14;11.52;;;3.30;;
52458;SDS011;38372;52.902;6.024;2022-11-09T11:53:40;11.52;;;3.42;;
52458;SDS011;38372;52.902;6.024;2022-11-09T11:56:25;11.70;;;3.40;;
52458;SDS011;38372;52.902;6.024;2022-11-09T12:08:00;11.85;;;3.08;;
52458;SDS011;38372;52.902;6.024;2022-11-09T12:10:38;11.30;;;2.78;;
52458;SDS011;38372;52.902;6.024;2022-11-09T12:13:30;11.65;;;4.38;;
52458;SDS011;38372;52.902;6.024;2022-11-09T12:18:56;13.45;;;4.55;;
52458;SDS011;38372;52.902;6.024;2022-11-09T12:21:51;9.70;;;2.55;;
52458;SDS011;38372;52.902;6.024;2022-11-09T12:24:23;15.40;;;2.83;;
52458;SDS011;38372;52.902;6.024;2022-11-09T12:30:09;10.48;;;2.78;;
52458;SDS011;38372;52.902;6.024;2022-11-09T12:32:55;13.68;;;3.90;;
52458;SDS011;38372;52.902;6.024;2022-11-09T12:35:40;6.47;;;2.20;;
52458;SDS011;38372;52.902;6.024;2022-11-09T12:38:14;7.80;;;2.33;;
52458;SDS011;38372;52.902;6.024;2022-11-09T12:40:46;7.88;;;2.40;;
52458;SDS011;38372;52.902;6.024;2022-11-09T12:44:34;9.07;;;2.45;;
52458;SDS011;38372;52.902;6.024;2022-11-09T12:47:11;5.70;;;1.63;;
52458;SDS011;38372;52.902;6.024;2022-11-09T12:49:43;8.05;;;1.65;;
52458;SDS011;38372;52.902;6.024;2022-11-09T12:52:14;8.25;;;1.75;;
52458;SDS011;38372;52.902;6.024;2022-11-09T12:54:48;9.35;;;1.70;;
52458;SDS011;38372;52.902;6.024;2022-11-09T12:57:17;5.97;;;2.00;;
52458;SDS011;38372;52.902;6.024;2022-11-09T12:59:48;8.80;;;1.95;;
52458;SDS011;38372;52.902;6.024;2022-11-09T13:02:23;7.18;;;1.75;;
52458;SDS011;38372;52.902;6.024;2022-11-09T13:04:57;8.27;;;1.88;;
52458;SDS011;38372;52.902;6.024;2022-11-09T13:09:56;12.52;;;2.17;;
52458;SDS011;38372;52.902;6.024;2022-11-09T13:12:38;6.10;;;1.73;;
52458;SDS011;38372;52.902;6.024;2022-11-09T13:15:27;6.20;;;1.80;;
52458;SDS011;38372;52.902;6.024;2022-11-09T13:17:56;6.78;;;1.80;;
52458;SDS011;38372;52.902;6.024;2022-11-09T13:23:01;10.18;;;1.83;;
52458;SDS011;38372;52.902;6.024;2022-11-09T13:25:49;6.05;;;1.40;;
52458;SDS011;38372;52.902;6.024;2022-11-09T13:30:58;9.27;;;1.63;;
52458;SDS011;38372;52.902;6.024;2022-11-09T13:33:29;6.82;;;1.60;;
52458;SDS011;38372;52.902;6.024;2022-11-09T13:38:33;6.72;;;1.00;;
52458;SDS011;38372;52.902;6.024;2022-11-09T13:41:03;4.60;;;1.13;;
52458;SDS011;38372;52.902;6.024;2022-11-09T13:44:03;2.15;;;0.93;;
52458;SDS011;38372;52.902;6.024;2022-11-09T13:49:37;2.85;;;0.93;;
52458;SDS011;38372;52.902;6.024;2022-11-09T13:52:04;4.55;;;1.02;;
52458;SDS011;38372;52.902;6.024;2022-11-09T13:55:16;7.18;;;1.08;;
52458;SDS011;38372;52.902;6.024;2022-11-09T13:57:48;3.78;;;1.10;;
52458;SDS011;38372;52.902;6.024;2022-11-09T14:00:20;5.40;;;1.23;;
52458;SDS011;38372;52.902;6.024;2022-11-09T14:03:31;3.92;;;1.40;;
52458;SDS011;38372;52.902;6.024;2022-11-09T14:05:42;8.10;;;1.50;;
52458;SDS011;38372;52.902;6.024;2022-11-09T14:08:15;6.15;;;1.20;;
52458;SDS011;38372;52.902;6.024;2022-11-09T14:11:06;4.40;;;1.30;;
52458;SDS011;38372;52.902;6.024;2022-11-09T14:17:06;6.72;;;2.30;;
52458;SDS011;38372;52.902;6.024;2022-11-09T14:22:37;8.90;;;2.95;;
52458;SDS011;38372;52.902;6.024;2022-11-09T14:25:14;11.43;;;3.00;;
52458;SDS011;38372;52.902;6.024;2022-11-09T14:27:53;10.35;;;2.72;;
52458;SDS011;38372;52.902;6.024;2022-11-09T14:30:24;8.85;;;2.88;;
52458;SDS011;38372;52.902;6.024;2022-11-09T14:32:53;8.45;;;2.80;;
52458;SDS011;38372;52.902;6.024;2022-11-09T14:35:22;8.38;;;2.53;;
52458;SDS011;38372;52.902;6.024;2022-11-09T14:37:57;6.97;;;2.97;;
52458;SDS011;38372;52.902;6.024;2022-11-09T14:40:30;10.25;;;3.08;;
52458;SDS011;38372;52.902;6.024;2022-11-09T14:45:55;8.30;;;2.55;;
52458;SDS011;38372;52.902;6.024;2022-11-09T14:48:27;5.95;;;2.85;;
52458;SDS011;38372;52.902;6.024;2022-11-09T14:50:56;6.90;;;3.63;;
52458;SDS011;38372;52.902;6.024;2022-11-09T14:56:02;8.40;;;2.53;;
52458;SDS011;38372;52.902;6.024;2022-11-09T14:58:31;5.97;;;2.23;;
52458;SDS011;38372;52.902;6.024;2022-11-09T15:03:45;9.57;;;2.40;;
52458;SDS011;38372;52.902;6.024;2022-11-09T15:06:31;6.30;;;2.33;;
52458;SDS011;38372;52.902;6.024;2022-11-09T15:09:00;10.10;;;2.38;;
52458;SDS011;38372;52.902;6.024;2022-11-09T15:11:38;8.32;;;1.77;;
52458;SDS011;38372;52.902;6.024;2022-11-09T15:16:45;7.70;;;2.13;;
52458;SDS011;38372;52.902;6.024;2022-11-09T15:21:54;12.93;;;3.17;;
52458;SDS011;38372;52.902;6.024;2022-11-09T15:24:24;11.82;;;3.08;;
52458;SDS011;38372;52.902;6.024;2022-11-09T15:26:54;10.77;;;2.67;;
52458;SDS011;38372;52.902;6.024;2022-11-09T15:29:40;8.70;;;2.22;;
52458;SDS011;38372;52.902;6.024;2022-11-09T15:32:12;7.97;;;2.42;;
52458;SDS011;38372;52.902;6.024;2022-11-09T15:34:54;13.13;;;3.13;;
52458;SDS011;38372;52.902;6.024;2022-11-09T15:39:52;8.90;;;2.88;;
52458;SDS011;38372;52.902;6.024;2022-11-09T15:42:19;7.63;;;2.50;;
52458;SDS011;38372;52.902;6.024;2022-11-09T15:44:52;9.93;;;2.28;;
52458;SDS011;38372;52.902;6.024;2022-11-09T15:47:22;6.65;;;2.25;;
52458;SDS011;38372;52.902;6.024;2022-11-09T15:49:58;10.07;;;3.10;;
52458;SDS011;38372;52.902;6.024;2022-11-09T15:52:27;13.65;;;2.50;;
52458;SDS011;38372;52.902;6.024;2022-11-09T15:54:55;12.38;;;2.53;;
52458;SDS011;38372;52.902;6.024;2022-11-09T15:57:21;6.60;;;1.80;;
52458;SDS011;38372;52.902;6.024;2022-11-09T15:59:50;8.55;;;1.40;;
52458;SDS011;38372;52.902;6.024;2022-11-09T16:02:17;9.27;;;1.85;;
52458;SDS011;38372;52.902;6.024;2022-11-09T16:04:44;10.43;;;1.80;;
52458;SDS011;38372;52.902;6.024;2022-11-09T16:07:12;8.98;;;1.70;;
52458;SDS011;38372;52.902;6.024;2022-11-09T16:09:40;11.23;;;1.67;;
52458;SDS011;38372;52.902;6.024;2022-11-09T16:12:07;7.22;;;1.58;;
52458;SDS011;38372;52.902;6.024;2022-11-09T16:14:34;10.63;;;2.22;;
52458;SDS011;38372;52.902;6.024;2022-11-09T16:17:01;8.07;;;1.77;;
52458;SDS011;38372;52.902;6.024;2022-11-09T16:19:30;10.80;;;2.40;;
52458;SDS011;38372;52.902;6.024;2022-11-09T16:21:56;8.77;;;1.93;;
52458;SDS011;38372;52.902;6.024;2022-11-09T16:24:25;10.73;;;1.63;;
52458;SDS011;38372;52.902;6.024;2022-11-09T16:26:52;7.75;;;1.95;;
52458;SDS011;38372;52.902;6.024;2022-11-09T16:29:19;9.57;;;1.80;;
52458;SDS011;38372;52.902;6.024;2022-11-09T16:31:53;8.40;;;1.52;;
52458;SDS011;38372;52.902;6.024;2022-11-09T16:34:20;9.43;;;1.80;;
52458;SDS011;38372;52.902;6.024;2022-11-09T16:36:52;9.40;;;1.88;;
52458;SDS011;38372;52.902;6.024;2022-11-09T16:39:20;12.68;;;1.98;;
52458;SDS011;38372;52.902;6.024;2022-11-09T16:41:50;8.43;;;1.92;;
52458;SDS011;38372;52.902;6.024;2022-11-09T16:44:19;10.52;;;2.08;;